Time;durP1;ratioP1;P1;durP2;ratioP2;P2;SDS_P1;SDS_P2;PMS_P1;PMS_P2;Temp;Humidity;BMP_temperature;BMP_pressure;BME280_temperature;BME280_humidity;BME280_pressure;Samples;Min_cycle;Max_cycle;Signal;HPM_P1;HPM_P2
2021/11/26 00:00:14;;;;;;;16.83;10.30;;;;;;;4.37;78.01;99157.41;5014314;28;20029;-55
2021/11/26 00:02:43;;;;;;;18.02;10.40;;;;;;;4.37;77.25;99162.53;5013965;28;20092;-55
2021/11/26 00:05:09;;;;;;;19.10;10.25;;;;;;;4.38;77.09;99154.00;5014501;28;20068;-55
2021/11/26 00:07:34;;;;;;;21.50;10.32;;;;;;;4.37;77.58;99154.84;5013801;28;20489;-55
2021/11/26 00:10:03;;;;;;;18.75;9.85;;;;;;;4.36;77.49;99153.09;5012533;28;20490;-56
2021/11/26 00:12:28;;;;;;;23.63;11.93;;;;;;;4.36;77.14;99146.25;5013958;28;20048;-55
2021/11/26 00:17:25;;;;;;;18.15;10.60;;;;;;;4.37;76.98;99144.56;5012640;28;20056;-55
2021/11/26 00:19:52;;;;;;;18.77;10.80;;;;;;;4.36;77.42;99135.13;4996306;28;20034;-55
2021/11/26 00:22:22;;;;;;;18.33;10.10;;;;;;;4.36;77.27;99137.69;4997156;28;20042;-53
2021/11/26 00:24:53;;;;;;;17.52;10.25;;;;;;;4.36;77.53;99128.28;5012802;28;20038;-55
2021/11/26 00:27:24;;;;;;;17.35;10.15;;;;;;;4.35;77.32;99123.13;5013817;28;20038;-55
2021/11/26 00:29:49;;;;;;;24.88;9.77;;;;;;;4.35;77.73;99123.13;4995420;28;20030;-55
2021/11/26 00:32:17;;;;;;;20.95;10.30;;;;;;;4.35;77.56;99110.31;5012397;28;20413;-55
2021/11/26 00:34:50;;;;;;;18.15;9.18;;;;;;;4.34;77.14;99109.44;5013217;28;20045;-56
2021/11/26 00:37:22;;;;;;;19.37;10.33;;;;;;;4.32;77.25;99105.97;4996688;28;20092;-56
2021/11/26 00:39:48;;;;;;;20.27;9.93;;;;;;;4.32;76.78;99105.97;4996314;28;20045;-55
2021/11/26 00:42:14;;;;;;;19.23;10.35;;;;;;;4.32;77.42;99107.66;5014177;28;20354;-56
2021/11/26 00:44:47;;;;;;;19.85;9.95;;;;;;;4.31;77.14;99096.53;5013548;28;20503;-55
2021/11/26 00:47:20;;;;;;;12.50;8.18;;;;;;;4.31;77.40;99087.97;5012727;28;20030;-55
2021/11/26 00:49:46;;;;;;;19.02;8.75;;;;;;;4.30;77.55;99086.22;5013377;28;20038;-55
2021/11/26 00:52:12;;;;;;;19.60;8.82;;;;;;;4.31;78.10;99083.72;5013583;28;20037;-55
2021/11/26 00:54:42;;;;;;;13.30;8.32;;;;;;;4.32;77.28;99077.75;5013467;28;20045;-55
2021/11/26 00:57:10;;;;;;;16.23;9.23;;;;;;;4.31;77.56;99077.69;5012320;28;20064;-55
2021/11/26 00:59:37;;;;;;;21.58;8.68;;;;;;;4.31;77.60;99072.56;5013885;28;20036;-55
2021/11/26 01:02:08;;;;;;;15.52;9.23;;;;;;;4.31;77.70;99070.88;4995682;28;20547;-55
2021/11/26 01:04:36;;;;;;;17.90;7.97;;;;;;;4.29;77.27;99066.53;5013496;28;20033;-55
2021/11/26 01:07:04;;;;;;;15.23;7.03;;;;;;;4.30;77.56;99060.56;4995793;28;20038;-56
2021/11/26 01:09:33;;;;;;;13.15;7.78;;;;;;;4.29;77.83;99054.59;4995788;28;20111;-55
2021/11/26 01:11:58;;;;;;;17.85;8.77;;;;;;;4.29;77.95;99051.13;4995776;28;20038;-55
2021/11/26 01:14:26;;;;;;;15.10;7.32;;;;;;;4.26;77.82;99045.13;5013552;28;20033;-55
2021/11/26 01:16:53;;;;;;;18.50;8.43;;;;;;;4.28;77.32;99055.41;4995523;28;20100;-55
2021/11/26 01:19:19;;;;;;;16.65;7.43;;;;;;;4.28;77.59;99045.16;5013408;28;20397;-55
2021/11/26 01:21:47;;;;;;;17.50;7.65;;;;;;;4.28;77.44;99047.72;5013539;28;20049;-53
2021/11/26 01:24:13;;;;;;;16.98;8.02;;;;;;;4.30;77.13;99040.03;4995604;28;20392;-56
2021/11/26 01:26:39;;;;;;;12.15;6.45;;;;;;;4.31;77.56;99039.22;5013477;28;20474;-55
2021/11/26 01:29:06;;;;;;;15.43;7.40;;;;;;;4.31;77.69;99031.53;5013059;28;20065;-53
2021/11/26 01:31:35;;;;;;;13.32;8.35;;;;;;;4.31;77.41;99028.97;5013038;28;20049;-56
2021/11/26 01:34:01;;;;;;;15.32;6.90;;;;;;;4.31;77.01;99031.53;5013162;28;20061;-55
2021/11/26 01:36:33;;;;;;;14.18;6.40;;;;;;;4.30;77.63;99015.28;4995416;28;20092;-56
2021/11/26 01:39:04;;;;;;;17.90;7.53;;;;;;;4.31;76.80;99018.69;5011967;28;20030;-56
2021/11/26 01:41:29;;;;;;;13.23;6.65;;;;;;;4.31;77.59;99013.56;5013913;28;20037;-55
2021/11/26 01:44:00;;;;;;;13.48;7.25;;;;;;;4.29;77.41;99008.41;5016681;28;20165;-55
2021/11/26 01:46:25;;;;;;;9.82;6.20;;;;;;;4.31;76.82;99005.88;5015423;28;20038;-56
2021/11/26 01:48:53;;;;;;;15.48;6.03;;;;;;;4.31;77.29;99000.75;5016588;28;20029;-56
2021/11/26 01:51:22;;;;;;;14.95;7.28;;;;;;;4.30;77.72;98999.00;5016544;28;20042;-55
2021/11/26 01:53:54;;;;;;;12.65;5.53;;;;;;;4.31;77.69;99004.19;5015265;28;20034;-55
2021/11/26 01:56:26;;;;;;;12.68;6.32;;;;;;;4.31;77.65;98993.03;4998717;28;20076;-55
2021/11/26 01:58:52;;;;;;;14.35;5.93;;;;;;;4.30;77.33;98987.06;4999164;28;20393;-56
2021/11/26 02:01:19;;;;;;;11.85;6.55;;;;;;;4.30;77.60;98991.31;5015997;28;20042;-55
2021/11/26 02:03:45;;;;;;;12.35;6.40;;;;;;;4.28;77.30;98975.88;5015115;28;20069;-55
2021/11/26 02:06:16;;;;;;;9.43;5.93;;;;;;;4.29;77.27;98979.31;5016141;28;20038;-56
2021/11/26 02:08:44;;;;;;;9.88;6.07;;;;;;;4.28;77.28;98975.03;4998498;28;20081;-53
2021/11/26 02:11:13;;;;;;;9.10;5.50;;;;;;;4.29;77.68;98981.88;5016270;28;20068;-55
2021/11/26 02:13:42;;;;;;;11.23;5.53;;;;;;;4.29;77.28;98972.50;4998482;28;20026;-55
2021/11/26 02:16:11;;;;;;;11.68;5.80;;;;;;;4.29;77.96;98967.38;5015942;28;20492;-55
2021/11/26 02:18:37;;;;;;;11.65;5.80;;;;;;;4.29;77.41;98964.81;4997862;28;20052;-55
2021/11/26 02:21:06;;;;;;;12.52;5.97;;;;;;;4.28;77.24;98950.25;5014674;28;20034;-55
2021/11/26 02:23:39;;;;;;;13.57;7.10;;;;;;;4.28;77.24;98947.69;4998303;28;20034;-55
2021/11/26 02:26:05;;;;;;;10.00;6.43;;;;;;;4.28;77.12;98939.13;5014991;28;20037;-55
2021/11/26 02:28:30;;;;;;;11.13;5.40;;;;;;;4.26;77.30;98932.25;5015694;28;20030;-55
2021/11/26 02:31:03;;;;;;;11.25;6.20;;;;;;;4.27;76.79;98927.97;5015784;28;20034;-55
2021/11/26 02:33:31;;;;;;;12.70;5.43;;;;;;;4.27;76.95;98922.84;4998339;28;20034;-55
2021/11/26 02:36:00;;;;;;;8.10;4.93;;;;;;;4.28;77.72;98923.72;4998770;28;20398;-56
2021/11/26 02:38:27;;;;;;;11.13;5.65;;;;;;;4.28;77.56;98911.75;5015784;28;20096;-56
2021/11/26 02:40:58;;;;;;;10.68;5.32;;;;;;;4.28;77.28;98911.75;5014307;28;20103;-56
2021/11/26 02:43:24;;;;;;;9.95;4.70;;;;;;;4.29;77.57;98902.34;5014374;28;20038;-55
2021/11/26 02:45:52;;;;;;;9.70;5.65;;;;;;;4.29;77.45;98902.34;5014263;28;20050;-55
2021/11/26 02:48:23;;;;;;;10.38;5.80;;;;;;;4.30;77.42;98896.41;4998037;28;20041;-56
2021/11/26 02:50:57;;;;;;;13.82;5.80;;;;;;;4.29;77.14;98892.97;5015751;28;20045;-55
2021/11/26 02:53:27;;;;;;;9.38;5.10;;;;;;;4.29;77.45;98887.84;5014645;28;20038;-55
2021/11/26 02:56:01;;;;;;;10.52;5.78;;;;;;;4.30;77.37;98888.69;4997870;28;20481;-56
2021/11/26 02:58:32;;;;;;;11.90;5.72;;;;;;;4.30;77.64;98883.56;5015243;28;20042;-56
2021/11/26 03:00:59;;;;;;;9.43;5.22;;;;;;;4.30;77.45;98883.56;5013855;28;20489;-55
2021/11/26 03:03:29;;;;;;;12.40;4.85;;;;;;;4.28;78.14;98875.00;5013560;28;20054;-56
2021/11/26 03:06:08;;;;;;;14.73;5.80;;;;;;;4.27;77.47;98876.69;5013800;28;20491;-55
2021/11/26 03:08:37;;;;;;;6.70;4.60;;;;;;;4.28;77.79;98870.72;5015090;28;20084;-55
2021/11/26 03:11:04;;;;;;;12.85;5.00;;;;;;;4.26;77.63;98859.56;5013761;28;20038;-55
2021/11/26 03:13:31;;;;;;;9.68;4.70;;;;;;;4.28;77.69;98867.31;4997450;28;20041;-55
2021/11/26 03:16:03;;;;;;;8.13;4.60;;;;;;;4.26;77.24;98857.88;4997270;28;20041;-55
2021/11/26 03:18:32;;;;;;;10.10;5.30;;;;;;;4.28;77.55;98851.91;5014849;28;20474;-54
2021/11/26 03:21:03;;;;;;;8.38;4.53;;;;;;;4.27;77.23;98853.59;5014670;28;20129;-56
2021/11/26 03:23:34;;;;;;;7.93;4.35;;;;;;;4.26;77.45;98849.28;4997132;28;20062;-55
2021/11/26 03:26:07;;;;;;;11.07;5.40;;;;;;;4.27;77.79;98851.03;5013934;28;20037;-55
2021/11/26 03:28:35;;;;;;;8.57;4.43;;;;;;;4.26;78.32;98842.47;5013391;28;20481;-56
2021/11/26 03:31:01;;;;;;;9.00;5.25;;;;;;;4.27;77.46;98840.78;4997136;28;20481;-55
2021/11/26 03:33:28;;;;;;;7.85;4.55;;;;;;;4.28;77.84;98833.97;5013304;28;20548;-55
2021/11/26 03:35:59;;;;;;;11.10;5.05;;;;;;;4.26;77.51;98827.09;5014379;28;20034;-55
2021/11/26 03:38:27;;;;;;;8.50;4.50;;;;;;;4.27;77.93;98822.81;4997433;28;20033;-55
2021/11/26 03:40:55;;;;;;;6.60;4.53;;;;;;;4.28;77.39;98818.56;5013318;28;20477;-56
2021/11/26 03:43:20;;;;;;;14.73;5.75;;;;;;;4.27;77.40;98817.69;5014589;28;20037;-56
2021/11/26 03:45:50;;;;;;;10.43;5.13;;;;;;;4.26;77.24;98806.56;5014267;28;20041;-55
2021/11/26 03:48:26;;;;;;;9.15;5.28;;;;;;;4.28;77.54;98808.31;5014346;28;20481;-55
2021/11/26 03:50:52;;;;;;;9.98;4.63;;;;;;;4.26;77.38;98796.31;4996499;28;20057;-55
2021/11/26 03:53:17;;;;;;;10.82;5.25;;;;;;;4.27;77.63;98792.03;5013023;28;20127;-53
2021/11/26 03:55:47;;;;;;;13.35;4.70;;;;;;;4.27;77.53;98781.78;5013490;28;20034;-56
2021/11/26 03:58:18;;;;;;;11.52;6.20;;;;;;;4.28;77.91;98782.66;4996574;28;20037;-55
2021/11/26 04:00:50;;;;;;;7.78;4.65;;;;;;;4.27;77.38;98781.78;5014119;28;20066;-53
2021/11/26 04:03:15;;;;;;;7.85;4.68;;;;;;;4.26;77.62;98773.22;5012515;28;20045;-56
2021/11/26 04:05:50;;;;;;;7.88;5.25;;;;;;;4.26;77.78;98770.66;5014455;28;20048;-55
2021/11/26 04:08:18;;;;;;;12.38;5.70;;;;;;;4.26;77.48;98765.53;5013900;28;20485;-56
2021/11/26 04:10:49;;;;;;;10.02;5.22;;;;;;;4.28;77.30;98769.84;4996366;28;20042;-55
2021/11/26 04:13:18;;;;;;;11.15;4.93;;;;;;;4.28;77.84;98767.28;5013981;28;20053;-56
2021/11/26 04:15:49;;;;;;;10.57;5.97;;;;;;;4.26;77.90;98760.41;4996094;28;20038;-55
2021/11/26 04:18:14;;;;;;;9.57;5.80;;;;;;;4.26;77.63;98749.25;4996354;28;20053;-55
2021/11/26 04:20:43;;;;;;;14.43;6.28;;;;;;;4.25;77.97;98750.09;5012740;28;20038;-56
2021/11/26 04:23:12;;;;;;;14.75;6.05;;;;;;;4.23;77.90;98734.69;4996216;28;20036;-56
2021/11/26 04:25:37;;;;;;;14.50;6.40;;;;;;;4.24;77.78;98738.09;4996524;28;20117;-55
2021/11/26 04:28:04;;;;;;;12.98;7.38;;;;;;;4.25;77.89;98724.44;5012639;28;20120;-55
2021/11/26 04:30:32;;;;;;;14.80;7.65;;;;;;;4.25;77.64;98729.56;4996288;28;20038;-55
2021/11/26 04:33:02;;;;;;;25.58;8.63;;;;;;;4.23;77.81;98721.88;4996201;28;20042;-55
2021/11/26 04:35:32;;;;;;;17.42;7.85;;;;;;;4.25;77.88;98724.44;5013640;28;20037;-55
2021/11/26 04:38:04;;;;;;;10.65;7.22;;;;;;;4.25;77.92;98716.75;4996306;28;20041;-55
2021/11/26 04:40:32;;;;;;;14.90;7.70;;;;;;;4.24;77.56;98715.91;5012482;28;20504;-55
2021/11/26 04:43:08;;;;;;;14.80;6.88;;;;;;;4.24;78.04;98705.63;5013659;28;20042;-55
2021/11/26 04:45:34;;;;;;;18.63;7.50;;;;;;;4.25;77.78;98698.78;4995873;28;20034;-55
2021/11/26 04:48:05;;;;;;;14.52;8.00;;;;;;;4.25;77.59;98698.78;5013638;28;20049;-55
2021/11/26 04:50:34;;;;;;;17.48;8.68;;;;;;;4.24;77.43;98697.06;4996330;28;20423;-55
2021/11/26 04:53:03;;;;;;;21.33;9.57;;;;;;;4.25;77.71;98694.56;4996088;28;20042;-55
2021/11/26 04:55:34;;;;;;;18.92;9.88;;;;;;;4.26;77.96;98685.13;4996188;28;20485;-55
2021/11/26 04:58:04;;;;;;;16.67;9.80;;;;;;;4.26;77.78;98683.47;5012624;28;20041;-55
2021/11/26 05:00:34;;;;;;;21.55;9.85;;;;;;;4.24;77.93;98680.00;4996454;28;20042;-55
2021/11/26 05:03:00;;;;;;;15.85;9.90;;;;;;;4.26;77.81;98677.44;4995674;28;20056;-56
2021/11/26 05:05:28;;;;;;;28.73;11.05;;;;;;;4.24;78.07;98677.44;5012278;28;20038;-56
2021/11/26 05:07:54;;;;;;;24.52;11.43;;;;;;;4.26;77.95;98668.06;5011973;28;20166;-55
2021/11/26 05:10:22;;;;;;;22.55;11.48;;;;;;;4.26;77.86;98668.06;5013962;28;20482;-55
2021/11/26 05:12:52;;;;;;;21.60;11.07;;;;;;;4.26;78.18;98668.06;5013371;28;20545;-56
2021/11/26 05:15:24;;;;;;;18.33;10.65;;;;;;;4.28;77.87;98664.66;5013475;28;20038;-56
2021/11/26 05:17:51;;;;;;;19.60;11.40;;;;;;;4.27;77.66;98661.22;5016484;28;20045;-55
2021/11/26 05:20:21;;;;;;;20.45;12.43;;;;;;;4.28;77.82;98659.53;4999432;28;20481;-55
2021/11/26 05:22:51;;;;;;;28.67;12.05;;;;;;;4.27;77.94;98656.09;4999386;28;20124;-55
2021/11/26 05:25:20;;;;;;;26.95;12.95;;;;;;;4.28;78.07;98654.41;4999209;28;20548;-55
2021/11/26 05:27:51;;;;;;;25.58;14.20;;;;;;;4.26;78.46;98649.22;4999360;28;20041;-55
2021/11/26 05:30:19;;;;;;;23.10;13.20;;;;;;;4.25;77.91;98647.50;4999729;28;20046;-55
2021/11/26 05:32:54;;;;;;;21.20;13.52;;;;;;;4.25;77.64;98650.06;4999239;28;20438;-55
2021/11/26 05:35:20;;;;;;;40.33;14.23;;;;;;;4.25;77.92;98645.81;5015746;28;20038;-54
2021/11/26 05:37:49;;;;;;;29.50;13.73;;;;;;;4.25;78.02;98638.13;5015824;28;20540;-54
2021/11/26 05:40:19;;;;;;;23.27;13.82;;;;;;;4.26;77.85;98644.97;4999487;28;20398;-54
2021/11/26 05:42:49;;;;;;;32.05;15.00;;;;;;;4.26;77.77;98641.53;4999467;28;20214;-55
2021/11/26 05:45:18;;;;;;;21.60;13.90;;;;;;;4.26;78.11;98639.84;4999203;28;20061;-55
2021/11/26 05:47:45;;;;;;;29.27;14.68;;;;;;;4.25;78.10;98634.69;5015270;28;20030;-55
2021/11/26 05:50:13;;;;;;;28.63;13.73;;;;;;;4.25;78.03;98627.88;5016519;28;20052;-54
2021/11/26 05:52:44;;;;;;;28.75;15.40;;;;;;;4.24;77.88;98623.56;4998928;28;20045;-55
2021/11/26 05:55:16;;;;;;;28.75;14.82;;;;;;;4.25;77.67;98619.28;4998763;28;20409;-54
2021/11/26 05:57:44;;;;;;;32.47;14.18;;;;;;;4.24;78.17;98623.56;4999015;28;20084;-54
2021/11/26 06:00:15;;;;;;;29.52;16.42;;;;;;;4.24;77.95;98615.00;5016306;28;20041;-54
2021/11/26 06:02:41;;;;;;;26.38;14.88;;;;;;;4.24;78.07;98615.00;4998875;28;20115;-54
2021/11/26 06:05:15;;;;;;;25.83;15.85;;;;;;;4.23;78.15;98606.44;5016456;28;20436;-55
2021/11/26 06:07:43;;;;;;;;;;;;;;;4.24;78.15;98604.72;5015505;28;20493;-55
2021/11/26 06:10:13;;;;;;;34.30;15.05;;;;;;;4.23;78.56;98603.88;4998697;28;19929;-54
2021/11/26 06:12:43;;;;;;;28.52;15.40;;;;;;;4.25;78.54;98596.19;4998505;28;20173;-55
2021/11/26 06:15:11;;;;;;;30.73;15.27;;;;;;;4.25;78.13;98593.63;4998682;28;20132;-55
2021/11/26 06:17:41;;;;;;;25.50;14.68;;;;;;;4.23;78.39;98585.94;4998494;28;20030;-55
2021/11/26 06:20:11;;;;;;;22.88;14.15;;;;;;;4.22;77.99;98586.75;4997805;28;20049;-55
2021/11/26 06:22:40;;;;;;;29.77;15.80;;;;;;;4.24;78.07;98579.09;4998777;28;20038;-55
2021/11/26 06:25:12;;;;;;;27.58;14.50;;;;;;;4.24;78.40;98576.53;4998538;28;20089;-55
2021/11/26 06:27:41;;;;;;;26.23;13.55;;;;;;;4.24;77.97;98571.38;5014869;28;20034;-55
2021/11/26 06:30:11;;;;;;;28.30;14.40;;;;;;;4.24;78.17;98569.72;5014549;28;20037;-55
2021/11/26 06:32:38;;;;;;;27.42;15.60;;;;;;;4.25;78.22;98565.44;4998084;28;20040;-55
2021/11/26 06:35:07;;;;;;;25.73;13.90;;;;;;;4.25;78.25;98560.28;5014412;28;20117;-56
2021/11/26 06:37:36;;;;;;;28.92;14.88;;;;;;;4.24;78.04;98558.56;4998271;28;20393;-55
2021/11/26 06:40:05;;;;;;;24.85;14.02;;;;;;;4.24;77.89;98551.75;5014438;28;20046;-55
2021/11/26 06:42:35;;;;;;;26.17;14.52;;;;;;;4.24;78.48;98545.75;5014389;28;20030;-55
2021/11/26 06:45:00;;;;;;;24.63;13.35;;;;;;;4.26;78.26;98552.66;5015498;28;20042;-55
2021/11/26 06:47:26;;;;;;;22.23;13.73;;;;;;;4.24;78.25;98545.75;5015452;28;20096;-55
2021/11/26 06:49:56;;;;;;;32.28;13.45;;;;;;;4.26;78.00;98544.06;5015422;28;20417;-55
2021/11/26 06:52:22;;;;;;;26.20;13.82;;;;;;;4.25;78.15;98542.34;5015442;28;20045;-55
2021/11/26 06:54:50;;;;;;;27.52;14.55;;;;;;;4.25;78.37;98537.22;5015760;28;20034;-55
2021/11/26 06:57:18;;;;;;;33.03;14.25;;;;;;;4.27;78.11;98532.97;5015252;28;20041;-55
2021/11/26 06:59:46;;;;;;;29.02;15.23;;;;;;;4.25;78.13;98532.09;4997484;28;20042;-55
2021/11/26 07:02:11;;;;;;;32.22;15.38;;;;;;;4.27;77.58;98525.28;4997412;28;20060;-55
2021/11/26 07:04:44;;;;;;;28.08;14.57;;;;;;;4.26;78.23;98529.56;5015192;28;20106;-55
2021/11/26 07:07:12;;;;;;;27.08;15.15;;;;;;;4.26;77.67;98523.56;4997607;28;20049;-55
2021/11/26 07:09:43;;;;;;;30.15;14.50;;;;;;;4.23;77.54;98506.44;5015522;28;20037;-55
2021/11/26 07:12:14;;;;;;;27.83;15.57;;;;;;;4.21;77.99;98499.53;5014084;28;20080;-55
2021/11/26 07:14:49;;;;;;;25.88;16.05;;;;;;;4.20;77.91;98493.53;4997172;28;20136;-55
2021/11/26 07:17:15;;;;;;;29.25;14.63;;;;;;;4.20;78.27;98493.53;5014894;28;20509;-54
2021/11/26 07:19:49;;;;;;;30.52;15.57;;;;;;;4.20;78.17;98495.25;5014832;28;20038;-55
2021/11/26 07:22:21;;;;;;;29.48;15.93;;;;;;;4.18;77.95;98484.97;5013582;28;20053;-55
2021/11/26 07:24:55;;;;;;;35.17;15.85;;;;;;;4.18;78.28;98484.97;5013795;28;20041;-55
2021/11/26 07:27:35;;;;;;;44.20;16.38;;;;;;;4.18;78.35;98473.84;4997036;28;20120;-55
2021/11/26 07:30:13;;;;;;;29.50;15.23;;;;;;;4.18;78.63;98473.84;5013428;28;20430;-55
2021/11/26 07:32:54;;;;;;;41.70;17.38;;;;;;;4.14;78.08;98460.09;5014862;28;20034;-55
2021/11/26 07:35:36;;;;;;;35.92;18.63;;;;;;;4.13;78.31;98453.22;5014551;28;20034;-55
2021/11/26 07:38:12;;;;;;;38.40;19.25;;;;;;;4.12;78.71;98448.97;5013816;28;20045;-56
2021/11/26 07:40:44;;;;;;;44.22;20.92;;;;;;;4.11;78.26;98439.56;4996510;28;20038;-55
2021/11/26 07:43:18;;;;;;;43.75;21.55;;;;;;;4.11;78.40;98440.41;5013854;28;20405;-55
2021/11/26 07:45:50;;;;;;;47.03;21.05;;;;;;;4.12;78.15;98438.72;4996691;28;20038;-55
2021/11/26 07:48:24;;;;;;;32.72;20.05;;;;;;;4.10;78.60;98433.53;5014469;28;20527;-55
2021/11/26 07:50:51;;;;;;;;;;;;;;;4.09;77.75;98429.25;4997266;28;20084;-56
2021/11/26 07:53:32;;;;;;;44.47;21.88;;;;;;;4.09;78.09;98428.41;4997021;28;20403;-56
2021/11/26 07:56:02;;;;;;;42.70;19.77;;;;;;;4.09;78.14;98426.69;5012919;28;20030;-55
2021/11/26 07:58:38;;;;;;;40.58;21.05;;;;;;;4.09;77.67;98425.84;4996567;28;20044;-55
2021/11/26 08:01:07;;;;;;;38.33;18.13;;;;;;;4.10;77.63;98420.72;5013043;28;20033;-55
2021/11/26 08:03:39;;;;;;;37.97;18.83;;;;;;;4.11;78.50;98431.88;5014148;28;20042;-55
2021/11/26 08:06:21;;;;;;;40.60;20.35;;;;;;;4.09;78.16;98426.69;4997206;28;20632;-55
2021/11/26 08:08:55;;;;;;;38.25;18.63;;;;;;;4.10;77.87;98427.56;5013113;28;20132;-55
2021/11/26 08:11:34;;;;;;;33.88;16.85;;;;;;;4.10;77.83;98433.53;5014012;28;20046;-55
2021/11/26 08:14:11;;;;;;;32.75;17.10;;;;;;;4.09;78.20;98430.97;5014010;28;20030;-55
2021/11/26 08:16:43;;;;;;;32.40;17.27;;;;;;;4.09;78.08;98426.69;5012517;28;20057;-55
2021/11/26 08:19:20;;;;;;;25.90;15.13;;;;;;;4.09;78.16;98420.72;5014407;28;20486;-55
2021/11/26 08:21:51;;;;;;;35.17;17.63;;;;;;;4.06;78.17;98416.38;5012842;28;20046;-56
2021/11/26 08:24:27;;;;;;;27.98;15.20;;;;;;;4.03;77.74;98415.47;5012650;28;20389;-55
2021/11/26 08:27:03;;;;;;;28.95;14.65;;;;;;;4.05;77.85;98409.53;4996198;28;20048;-55
2021/11/26 08:29:40;;;;;;;28.17;13.52;;;;;;;4.04;78.67;98402.69;5013841;28;20037;-55
2021/11/26 08:32:06;;;;;;;24.77;13.48;;;;;;;4.03;78.09;98395.84;5014055;28;20157;-55
2021/11/26 08:34:37;;;;;;;27.08;13.07;;;;;;;4.03;77.78;98385.59;5012513;28;20084;-55
2021/11/26 08:37:11;;;;;;;29.90;11.90;;;;;;;4.02;77.83;98390.69;5012456;28;20061;-55
2021/11/26 08:39:37;;;;;;;29.50;11.88;;;;;;;4.01;78.21;98387.25;5012791;28;20030;-55
2021/11/26 08:42:10;;;;;;;22.42;12.02;;;;;;;4.00;77.76;98380.41;5014270;28;20077;-55
2021/11/26 08:44:44;;;;;;;22.65;11.52;;;;;;;4.01;78.37;98381.25;5012563;28;20034;-56
2021/11/26 08:47:10;;;;;;;21.30;10.95;;;;;;;3.97;77.65;98373.50;4996195;28;20045;-54
2021/11/26 08:49:44;;;;;;;16.77;10.38;;;;;;;3.95;77.99;98382.91;5013508;28;20041;-55
2021/11/26 08:52:12;;;;;;;;;;;;;;;3.94;78.09;98358.09;5015392;28;20172;-55
2021/11/26 08:54:37;;;;;;;20.65;10.68;;;;;;;3.93;78.22;98379.44;4999943;28;20011;-55
2021/11/26 08:57:10;;;;;;;19.67;9.20;;;;;;;3.91;77.79;98355.50;5016275;28;20107;-55
2021/11/26 08:59:40;;;;;;;17.45;8.50;;;;;;;3.91;77.65;98362.31;5017593;28;20041;-54
2021/11/26 09:02:12;;;;;;;16.58;9.27;;;;;;;3.89;77.76;98359.72;5015952;28;20501;-55
2021/11/26 09:04:41;;;;;;;17.60;7.80;;;;;;;3.90;77.81;98356.31;5000712;28;20029;-55
2021/11/26 09:07:07;;;;;;;16.33;7.65;;;;;;;3.91;78.02;98346.91;4983532;28;20451;-56
2021/11/26 09:09:43;;;;;;;13.45;8.35;;;;;;;3.90;78.10;98338.38;5015949;28;20034;-56
2021/11/26 09:12:11;;;;;;;16.17;7.97;;;;;;;3.90;78.10;98333.25;5016270;28;20124;-55
2021/11/26 09:14:39;;;;;;;19.35;8.27;;;;;;;3.91;77.75;98332.41;4999442;28;20044;-55
2021/11/26 09:17:06;;;;;;;18.02;7.90;;;;;;;3.93;78.20;98333.31;5016265;28;20375;-55
2021/11/26 09:19:32;;;;;;;18.35;7.72;;;;;;;3.93;78.11;98323.06;5015769;28;20084;-56
2021/11/26 09:22:03;;;;;;;13.68;6.90;;;;;;;3.92;77.78;98329.03;5017075;28;20041;-56
2021/11/26 09:24:34;;;;;;;19.17;7.28;;;;;;;3.92;77.98;98320.44;5016112;28;20042;-55
2021/11/26 09:27:03;;;;;;;15.77;7.70;;;;;;;3.90;77.76;98317.88;4999787;28;20125;-55
2021/11/26 09:29:41;;;;;;;14.38;7.10;;;;;;;3.91;78.19;98318.72;5016997;28;20030;-55
2021/11/26 09:32:10;;;;;;;22.15;7.35;;;;;;;3.91;77.83;98316.16;4999946;28;20053;-56
2021/11/26 09:34:44;;;;;;;13.00;6.75;;;;;;;3.90;77.70;98315.31;5015544;28;20046;-55
2021/11/26 09:37:11;;;;;;;15.80;8.18;;;;;;;3.91;77.27;98308.47;5015746;28;20382;-55
2021/11/26 09:39:37;;;;;;;13.95;6.80;;;;;;;3.89;77.66;98293.09;5015646;28;20091;-56
2021/11/26 09:42:06;;;;;;;15.07;6.25;;;;;;;3.87;77.93;98296.47;5017136;28;20050;-55
2021/11/26 09:44:36;;;;;;;15.30;7.28;;;;;;;3.86;77.06;98275.09;4998937;28;20512;-55
2021/11/26 09:47:05;;;;;;;17.65;6.68;;;;;;;3.84;77.88;98270.78;5016833;28;20059;-55
2021/11/26 09:49:34;;;;;;;15.93;6.30;;;;;;;3.85;77.58;98258.00;5016612;28;20034;-55
2021/11/26 09:52:06;;;;;;;17.75;7.25;;;;;;;3.84;77.29;98256.25;4999162;28;20062;-56
2021/11/26 09:54:44;;;;;;;12.05;5.93;;;;;;;3.83;76.89;98243.44;5016672;28;20045;-55
2021/11/26 09:57:11;;;;;;;15.13;6.03;;;;;;;3.86;77.29;98235.81;4998492;28;20163;-55
2021/11/26 09:59:45;;;;;;;16.70;6.22;;;;;;;3.85;77.44;98223.81;5015515;28;20420;-55
2021/11/26 10:02:20;;;;;;;15.90;5.60;;;;;;;3.83;76.93;98218.66;4998622;28;20134;-55
2021/11/26 10:05:03;;;;;;;16.25;5.32;;;;;;;3.81;77.31;98207.56;4998648;28;20042;-55
2021/11/26 10:07:29;;;;;;;13.45;5.75;;;;;;;3.80;76.71;98196.41;5015061;28;20037;-55
2021/11/26 10:10:11;;;;;;;14.88;6.40;;;;;;;3.80;77.60;98187.88;5016348;28;20459;-55
2021/11/26 10:12:40;;;;;;;12.90;4.93;;;;;;;3.81;76.89;98179.34;5015164;28;20088;-55
2021/11/26 10:15:18;;;;;;;13.07;5.65;;;;;;;3.81;76.60;98172.53;5014857;28;20034;-55
2021/11/26 10:17:47;;;;;;;14.48;5.55;;;;;;;3.83;76.95;98164.00;5015151;28;20120;-55
2021/11/26 10:20:16;;;;;;;13.68;6.35;;;;;;;3.83;77.41;98157.16;5016021;28;20116;-55
2021/11/26 10:22:45;;;;;;;9.45;5.45;;;;;;;3.84;77.47;98152.91;5015964;28;20123;-56
2021/11/26 10:25:16;;;;;;;14.57;5.97;;;;;;;3.85;77.12;98150.34;5016109;28;20037;-55
2021/11/26 10:27:49;;;;;;;10.38;6.03;;;;;;;3.88;76.58;98140.13;4998361;28;20072;-55
2021/11/26 10:30:19;;;;;;;19.23;6.43;;;;;;;3.87;77.23;98138.41;4998285;28;20062;-55
2021/11/26 10:33:07;;;;;;;13.50;5.80;;;;;;;3.88;76.84;98129.03;4998426;28;20084;-55
2021/11/26 10:35:54;;;;;;;15.00;6.55;;;;;;;3.86;76.70;98129.00;5015704;28;20121;-55
2021/11/26 10:38:31;;;;;;;10.88;5.60;;;;;;;3.90;76.95;98130.78;4998340;28;20041;-55
2021/11/26 10:41:09;;;;;;;18.73;7.15;;;;;;;3.92;77.01;98111.16;4998104;28;20046;-55
2021/11/26 10:57:42;;;;;;;16.13;6.47;;;;;;;3.94;76.76;98055.63;5015260;28;20046;-55
2021/11/26 11:00:25;;;;;;;17.38;6.00;;;;;;;3.95;76.82;98044.53;5014338;28;20041;-55
2021/11/26 11:03:03;;;;;;;13.57;5.22;;;;;;;3.97;76.81;98037.69;5014923;28;20486;-55
2021/11/26 11:05:41;;;;;;;14.05;5.45;;;;;;;3.99;76.71;98031.72;5015209;28;20033;-55
2021/11/26 11:08:33;;;;;;;14.70;4.82;;;;;;;4.00;76.71;98028.31;4998271;28;20559;-56
2021/11/26 11:11:18;;;;;;;13.70;5.15;;;;;;;4.02;76.80;98024.09;5015332;28;20038;-55
2021/11/26 11:13:51;;;;;;;16.50;4.97;;;;;;;4.02;76.78;98008.69;5014472;28;20042;-56
2021/11/26 11:16:30;;;;;;;12.52;5.50;;;;;;;4.02;77.21;98007.00;5013646;28;20034;-55
2021/11/26 11:19:13;;;;;;;13.40;4.55;;;;;;;4.03;77.04;97995.03;5014004;28;20163;-55
2021/11/26 11:21:45;;;;;;;14.18;4.53;;;;;;;4.03;76.86;97984.78;5013727;28;20050;-55
2021/11/26 11:24:25;;;;;;;8.88;4.63;;;;;;;4.03;76.73;97980.53;5014846;28;20044;-55
2021/11/26 11:26:56;;;;;;;11.82;5.15;;;;;;;4.05;77.21;97963.44;5013772;28;20026;-55
2021/11/26 11:29:36;;;;;;;15.52;5.90;;;;;;;4.05;77.25;97960.03;4997778;28;20133;-55
2021/11/26 11:32:10;;;;;;;16.48;5.05;;;;;;;4.06;77.02;97959.19;5014813;28;20092;-55
2021/11/26 11:34:42;;;;;;;15.95;5.38;;;;;;;4.05;76.97;97945.50;4996760;28;20080;-55
2021/11/26 11:37:22;;;;;;;15.02;5.40;;;;;;;4.05;77.07;97930.09;5014699;28;20139;-55
2021/11/26 11:40:08;;;;;;;14.57;4.85;;;;;;;4.04;76.87;97930.09;5014449;28;20099;-55
2021/11/26 11:42:52;;;;;;;16.80;6.97;;;;;;;4.05;76.89;97924.13;5013197;28;20038;-55
2021/11/26 11:45:24;;;;;;;15.23;5.40;;;;;;;4.05;76.79;97916.44;5013194;28;20512;-55
2021/11/26 11:48:03;;;;;;;16.00;5.10;;;;;;;4.05;77.08;97909.59;5014306;28;20505;-55
2021/11/26 11:50:43;;;;;;;13.75;5.35;;;;;;;4.04;76.44;97905.34;5014557;28;20073;-55
2021/11/26 11:53:32;;;;;;;14.38;5.18;;;;;;;4.05;76.64;97890.81;4996617;28;20501;-55
2021/11/26 11:56:27;;;;;;;14.27;5.10;;;;;;;4.04;76.94;97884.84;4996448;28;20038;-55
2021/11/26 11:59:04;;;;;;;;;;;;;;;4.04;76.20;97881.41;4997546;28;20157;-56
2021/11/26 12:01:41;;;;;;;12.35;5.68;;;;;;;4.02;77.06;97872.84;4996436;28;19925;-55
2021/11/26 12:04:27;;;;;;;11.63;4.75;;;;;;;4.03;77.17;97866.88;5014017;28;20141;-55